sensor_id;sensor_type;location;lat;lon;timestamp;P1;durP1;ratioP1;P2;durP2;ratioP2
77111;SDS011;66064;50.226;14.344;2023-11-18T00:00:04;11.95;;;11.05;;
77111;SDS011;66064;50.226;14.344;2023-11-18T00:02:57;9.68;;;9.00;;
77111;SDS011;66064;50.226;14.344;2023-11-18T00:05:23;9.63;;;8.82;;
77111;SDS011;66064;50.226;14.344;2023-11-18T00:07:49;10.30;;;9.60;;
77111;SDS011;66064;50.226;14.344;2023-11-18T00:10:15;9.13;;;8.43;;
77111;SDS011;66064;50.226;14.344;2023-11-18T00:12:42;9.90;;;9.13;;
77111;SDS011;66064;50.226;14.344;2023-11-18T00:15:08;10.15;;;9.55;;
77111;SDS011;66064;50.226;14.344;2023-11-18T00:17:37;11.48;;;8.93;;
77111;SDS011;66064;50.226;14.344;2023-11-18T00:20:03;9.18;;;8.38;;
77111;SDS011;66064;50.226;14.344;2023-11-18T00:22:35;12.80;;;11.75;;
77111;SDS011;66064;50.226;14.344;2023-11-18T00:25:02;11.18;;;10.38;;
77111;SDS011;66064;50.226;14.344;2023-11-18T00:27:31;9.88;;;9.27;;
77111;SDS011;66064;50.226;14.344;2023-11-18T00:29:56;11.05;;;10.30;;
77111;SDS011;66064;50.226;14.344;2023-11-18T00:32:22;11.13;;;10.25;;
77111;SDS011;66064;50.226;14.344;2023-11-18T00:34:48;10.77;;;9.98;;
77111;SDS011;66064;50.226;14.344;2023-11-18T00:37:14;9.75;;;8.90;;
77111;SDS011;66064;50.226;14.344;2023-11-18T00:39:40;10.23;;;9.63;;
77111;SDS011;66064;50.226;14.344;2023-11-18T00:42:07;10.80;;;10.00;;
77111;SDS011;66064;50.226;14.344;2023-11-18T00:44:32;9.13;;;8.43;;
77111;SDS011;66064;50.226;14.344;2023-11-18T00:46:58;11.73;;;10.52;;
77111;SDS011;66064;50.226;14.344;2023-11-18T00:49:26;8.70;;;8.00;;
77111;SDS011;66064;50.226;14.344;2023-11-18T00:51:52;11.07;;;10.18;;
77111;SDS011;66064;50.226;14.344;2023-11-18T00:54:18;11.55;;;10.45;;
77111;SDS011;66064;50.226;14.344;2023-11-18T00:56:44;11.18;;;10.45;;
77111;SDS011;66064;50.226;14.344;2023-11-18T00:59:10;12.00;;;11.10;;
77111;SDS011;66064;50.226;14.344;2023-11-18T01:01:36;10.90;;;10.00;;
77111;SDS011;66064;50.226;14.344;2023-11-18T01:04:02;10.73;;;10.02;;
77111;SDS011;66064;50.226;14.344;2023-11-18T01:06:28;11.13;;;10.13;;
77111;SDS011;66064;50.226;14.344;2023-11-18T01:08:54;10.13;;;9.40;;
77111;SDS011;66064;50.226;14.344;2023-11-18T01:11:20;10.32;;;9.57;;
77111;SDS011;66064;50.226;14.344;2023-11-18T01:13:48;11.77;;;10.88;;
77111;SDS011;66064;50.226;14.344;2023-11-18T01:16:15;10.98;;;10.07;;
77111;SDS011;66064;50.226;14.344;2023-11-18T01:18:41;11.45;;;10.75;;
77111;SDS011;66064;50.226;14.344;2023-11-18T01:21:08;10.68;;;9.98;;
77111;SDS011;66064;50.226;14.344;2023-11-18T01:23:36;12.43;;;11.43;;
77111;SDS011;66064;50.226;14.344;2023-11-18T01:26:03;12.07;;;11.13;;
77111;SDS011;66064;50.226;14.344;2023-11-18T01:28:34;12.45;;;11.52;;
77111;SDS011;66064;50.226;14.344;2023-11-18T01:31:07;14.70;;;13.52;;
77111;SDS011;66064;50.226;14.344;2023-11-18T01:33:36;11.65;;;10.75;;
77111;SDS011;66064;50.226;14.344;2023-11-18T01:36:07;11.88;;;10.88;;
77111;SDS011;66064;50.226;14.344;2023-11-18T01:38:35;12.02;;;11.13;;
77111;SDS011;66064;50.226;14.344;2023-11-18T01:41:06;11.32;;;10.32;;
77111;SDS011;66064;50.226;14.344;2023-11-18T01:45:59;11.07;;;10.23;;
77111;SDS011;66064;50.226;14.344;2023-11-18T01:48:28;10.95;;;10.15;;
77111;SDS011;66064;50.226;14.344;2023-11-18T01:50:56;12.65;;;11.63;;
77111;SDS011;66064;50.226;14.344;2023-11-18T01:53:26;11.02;;;10.02;;
77111;SDS011;66064;50.226;14.344;2023-11-18T01:55:53;12.00;;;11.07;;
77111;SDS011;66064;50.226;14.344;2023-11-18T01:58:20;11.13;;;10.23;;
77111;SDS011;66064;50.226;14.344;2023-11-18T02:00:48;11.70;;;10.80;;
77111;SDS011;66064;50.226;14.344;2023-11-18T02:03:17;10.85;;;9.95;;
77111;SDS011;66064;50.226;14.344;2023-11-18T02:05:43;13.45;;;12.40;;
77111;SDS011;66064;50.226;14.344;2023-11-18T02:08:09;10.75;;;9.95;;
77111;SDS011;66064;50.226;14.344;2023-11-18T02:10:44;12.35;;;11.35;;
77111;SDS011;66064;50.226;14.344;2023-11-18T02:13:24;12.23;;;11.15;;
77111;SDS011;66064;50.226;14.344;2023-11-18T02:15:57;11.57;;;10.65;;
77111;SDS011;66064;50.226;14.344;2023-11-18T02:18:26;13.13;;;12.13;;
77111;SDS011;66064;50.226;14.344;2023-11-18T02:20:55;13.55;;;12.38;;
77111;SDS011;66064;50.226;14.344;2023-11-18T02:23:27;13.52;;;12.43;;
77111;SDS011;66064;50.226;14.344;2023-11-18T02:25:55;12.95;;;11.65;;
77111;SDS011;66064;50.226;14.344;2023-11-18T02:28:21;11.13;;;10.20;;
77111;SDS011;66064;50.226;14.344;2023-11-18T02:30:47;13.07;;;11.93;;
77111;SDS011;66064;50.226;14.344;2023-11-18T02:33:19;11.52;;;10.43;;
77111;SDS011;66064;50.226;14.344;2023-11-18T02:35:55;11.25;;;10.25;;
77111;SDS011;66064;50.226;14.344;2023-11-18T02:38:46;11.40;;;10.40;;
77111;SDS011;66064;50.226;14.344;2023-11-18T02:41:15;13.30;;;12.30;;
77111;SDS011;66064;50.226;14.344;2023-11-18T02:43:45;12.85;;;11.75;;
77111;SDS011;66064;50.226;14.344;2023-11-18T02:46:12;11.23;;;10.25;;
77111;SDS011;66064;50.226;14.344;2023-11-18T02:48:39;12.20;;;11.10;;
77111;SDS011;66064;50.226;14.344;2023-11-18T02:51:07;12.65;;;11.57;;
77111;SDS011;66064;50.226;14.344;2023-11-18T02:53:33;12.40;;;11.30;;
77111;SDS011;66064;50.226;14.344;2023-11-18T02:56:00;10.30;;;9.45;;
77111;SDS011;66064;50.226;14.344;2023-11-18T02:58:30;12.82;;;11.75;;
77111;SDS011;66064;50.226;14.344;2023-11-18T03:00:56;11.13;;;10.23;;
77111;SDS011;66064;50.226;14.344;2023-11-18T03:03:26;11.15;;;10.25;;
77111;SDS011;66064;50.226;14.344;2023-11-18T03:05:55;13.07;;;12.07;;
77111;SDS011;66064;50.226;14.344;2023-11-18T03:08:21;11.35;;;10.35;;
77111;SDS011;66064;50.226;14.344;2023-11-18T03:10:47;14.15;;;12.73;;
77111;SDS011;66064;50.226;14.344;2023-11-18T03:13:16;13.48;;;12.25;;
77111;SDS011;66064;50.226;14.344;2023-11-18T03:15:42;12.90;;;11.75;;
77111;SDS011;66064;50.226;14.344;2023-11-18T03:18:08;14.27;;;13.00;;
77111;SDS011;66064;50.226;14.344;2023-11-18T03:20:34;13.15;;;11.85;;
77111;SDS011;66064;50.226;14.344;2023-11-18T03:23:00;14.05;;;12.95;;
77111;SDS011;66064;50.226;14.344;2023-11-18T03:25:27;14.95;;;13.68;;
77111;SDS011;66064;50.226;14.344;2023-11-18T03:27:53;14.85;;;12.85;;
77111;SDS011;66064;50.226;14.344;2023-11-18T03:30:20;15.35;;;13.85;;
77111;SDS011;66064;50.226;14.344;2023-11-18T03:32:46;13.73;;;12.52;;
77111;SDS011;66064;50.226;14.344;2023-11-18T03:35:12;14.45;;;13.15;;
77111;SDS011;66064;50.226;14.344;2023-11-18T03:37:39;12.75;;;11.63;;
77111;SDS011;66064;50.226;14.344;2023-11-18T03:40:09;12.20;;;11.05;;
77111;SDS011;66064;50.226;14.344;2023-11-18T03:42:40;13.07;;;11.98;;
77111;SDS011;66064;50.226;14.344;2023-11-18T03:45:07;13.10;;;12.00;;
77111;SDS011;66064;50.226;14.344;2023-11-18T03:47:34;12.07;;;11.10;;
77111;SDS011;66064;50.226;14.344;2023-11-18T03:50:01;15.57;;;14.15;;
77111;SDS011;66064;50.226;14.344;2023-11-18T03:52:27;14.52;;;13.23;;
77111;SDS011;66064;50.226;14.344;2023-11-18T03:54:53;13.93;;;12.63;;
77111;SDS011;66064;50.226;14.344;2023-11-18T03:57:22;12.15;;;11.02;;
77111;SDS011;66064;50.226;14.344;2023-11-18T03:59:48;12.43;;;11.43;;
77111;SDS011;66064;50.226;14.344;2023-11-18T04:02:14;12.77;;;11.77;;
77111;SDS011;66064;50.226;14.344;2023-11-18T04:04:40;13.77;;;12.68;;
77111;SDS011;66064;50.226;14.344;2023-11-18T04:07:06;15.15;;;14.05;;
77111;SDS011;66064;50.226;14.344;2023-11-18T04:09:32;14.05;;;12.63;;
77111;SDS011;66064;50.226;14.344;2023-11-18T04:11:58;14.35;;;13.25;;
77111;SDS011;66064;50.226;14.344;2023-11-18T04:14:24;13.20;;;12.10;;
77111;SDS011;66064;50.226;14.344;2023-11-18T04:16:51;14.70;;;13.45;;
77111;SDS011;66064;50.226;14.344;2023-11-18T04:19:17;12.88;;;11.82;;
77111;SDS011;66064;50.226;14.344;2023-11-18T04:21:43;12.05;;;11.05;;
77111;SDS011;66064;50.226;14.344;2023-11-18T04:24:14;13.93;;;12.82;;
77111;SDS011;66064;50.226;14.344;2023-11-18T04:26:40;12.32;;;11.27;;
77111;SDS011;66064;50.226;14.344;2023-11-18T04:29:07;12.98;;;12.02;;
77111;SDS011;66064;50.226;14.344;2023-11-18T04:31:33;12.32;;;11.20;;
77111;SDS011;66064;50.226;14.344;2023-11-18T04:36:29;10.85;;;10.02;;
77111;SDS011;66064;50.226;14.344;2023-11-18T04:38:57;12.95;;;12.05;;
77111;SDS011;66064;50.226;14.344;2023-11-18T04:41:23;10.05;;;9.25;;
77111;SDS011;66064;50.226;14.344;2023-11-18T04:43:49;10.98;;;10.18;;
77111;SDS011;66064;50.226;14.344;2023-11-18T04:46:15;11.02;;;10.32;;
77111;SDS011;66064;50.226;14.344;2023-11-18T04:48:42;9.52;;;8.85;;
77111;SDS011;66064;50.226;14.344;2023-11-18T04:51:08;8.90;;;8.30;;
77111;SDS011;66064;50.226;14.344;2023-11-18T04:53:35;9.35;;;8.85;;
77111;SDS011;66064;50.226;14.344;2023-11-18T04:56:00;8.60;;;8.00;;
77111;SDS011;66064;50.226;14.344;2023-11-18T04:58:28;10.45;;;9.68;;
77111;SDS011;66064;50.226;14.344;2023-11-18T05:00:54;11.38;;;10.57;;
77111;SDS011;66064;50.226;14.344;2023-11-18T05:03:20;9.95;;;9.25;;
77111;SDS011;66064;50.226;14.344;2023-11-18T05:05:47;11.10;;;10.30;;
77111;SDS011;66064;50.226;14.344;2023-11-18T05:08:19;8.75;;;8.15;;
77111;SDS011;66064;50.226;14.344;2023-11-18T05:10:47;10.88;;;10.18;;
77111;SDS011;66064;50.226;14.344;2023-11-18T05:13:14;10.35;;;9.65;;
77111;SDS011;66064;50.226;14.344;2023-11-18T05:15:43;10.40;;;9.52;;
77111;SDS011;66064;50.226;14.344;2023-11-18T05:18:11;10.15;;;9.32;;
77111;SDS011;66064;50.226;14.344;2023-11-18T05:20:43;10.35;;;9.55;;
77111;SDS011;66064;50.226;14.344;2023-11-18T05:23:10;11.18;;;10.27;;
77111;SDS011;66064;50.226;14.344;2023-11-18T05:25:40;10.63;;;9.98;;
77111;SDS011;66064;50.226;14.344;2023-11-18T05:28:09;11.48;;;10.77;;
77111;SDS011;66064;50.226;14.344;2023-11-18T05:30:35;9.60;;;8.80;;
77111;SDS011;66064;50.226;14.344;2023-11-18T05:33:02;9.65;;;9.02;;
77111;SDS011;66064;50.226;14.344;2023-11-18T05:35:31;10.68;;;9.95;;
77111;SDS011;66064;50.226;14.344;2023-11-18T05:37:58;11.05;;;10.23;;
77111;SDS011;66064;50.226;14.344;2023-11-18T05:40:31;11.38;;;10.43;;
77111;SDS011;66064;50.226;14.344;2023-11-18T05:42:58;12.07;;;11.25;;
77111;SDS011;66064;50.226;14.344;2023-11-18T05:45:26;12.68;;;11.82;;
77111;SDS011;66064;50.226;14.344;2023-11-18T05:47:57;11.20;;;10.27;;
77111;SDS011;66064;50.226;14.344;2023-11-18T05:50:24;9.88;;;9.15;;
77111;SDS011;66064;50.226;14.344;2023-11-18T05:52:52;8.73;;;8.02;;
77111;SDS011;66064;50.226;14.344;2023-11-18T05:55:19;10.50;;;9.73;;
77111;SDS011;66064;50.226;14.344;2023-11-18T05:57:47;9.52;;;8.73;;
77111;SDS011;66064;50.226;14.344;2023-11-18T06:00:15;10.68;;;9.82;;
77111;SDS011;66064;50.226;14.344;2023-11-18T06:02:45;10.30;;;9.50;;
77111;SDS011;66064;50.226;14.344;2023-11-18T06:05:12;9.90;;;9.10;;
77111;SDS011;66064;50.226;14.344;2023-11-18T06:07:39;10.32;;;9.63;;
77111;SDS011;66064;50.226;14.344;2023-11-18T06:10:09;10.15;;;9.48;;
77111;SDS011;66064;50.226;14.344;2023-11-18T06:12:36;8.70;;;8.07;;
77111;SDS011;66064;50.226;14.344;2023-11-18T06:15:05;11.02;;;10.02;;
77111;SDS011;66064;50.226;14.344;2023-11-18T06:17:34;10.10;;;9.50;;
77111;SDS011;66064;50.226;14.344;2023-11-18T06:20:00;8.80;;;8.00;;
77111;SDS011;66064;50.226;14.344;2023-11-18T06:22:28;9.35;;;8.65;;
77111;SDS011;66064;50.226;14.344;2023-11-18T06:24:55;11.88;;;10.90;;
77111;SDS011;66064;50.226;14.344;2023-11-18T06:27:22;8.80;;;8.20;;
77111;SDS011;66064;50.226;14.344;2023-11-18T06:29:50;10.30;;;9.50;;
77111;SDS011;66064;50.226;14.344;2023-11-18T06:32:20;11.98;;;11.23;;
77111;SDS011;66064;50.226;14.344;2023-11-18T06:34:47;10.40;;;9.73;;
77111;SDS011;66064;50.226;14.344;2023-11-18T06:37:15;9.98;;;9.27;;
77111;SDS011;66064;50.226;14.344;2023-11-18T06:39:41;8.52;;;7.88;;
77111;SDS011;66064;50.226;14.344;2023-11-18T06:42:10;9.98;;;9.30;;
77111;SDS011;66064;50.226;14.344;2023-11-18T06:44:37;9.30;;;8.65;;
77111;SDS011;66064;50.226;14.344;2023-11-18T06:47:10;9.82;;;9.23;;
77111;SDS011;66064;50.226;14.344;2023-11-18T06:49:38;9.10;;;8.40;;
77111;SDS011;66064;50.226;14.344;2023-11-18T06:52:07;9.15;;;8.45;;
77111;SDS011;66064;50.226;14.344;2023-11-18T06:54:35;10.75;;;10.00;;
77111;SDS011;66064;50.226;14.344;2023-11-18T06:57:02;9.75;;;8.75;;
77111;SDS011;66064;50.226;14.344;2023-11-18T06:59:28;11.05;;;10.35;;
77111;SDS011;66064;50.226;14.344;2023-11-18T07:01:55;9.98;;;9.35;;
77111;SDS011;66064;50.226;14.344;2023-11-18T07:04:21;8.60;;;7.93;;
77111;SDS011;66064;50.226;14.344;2023-11-18T07:06:47;8.18;;;7.63;;
77111;SDS011;66064;50.226;14.344;2023-11-18T07:09:15;7.68;;;7.18;;
77111;SDS011;66064;50.226;14.344;2023-11-18T07:11:46;8.30;;;7.68;;
77111;SDS011;66064;50.226;14.344;2023-11-18T07:14:13;9.27;;;8.77;;
77111;SDS011;66064;50.226;14.344;2023-11-18T07:16:41;8.38;;;7.72;;
77111;SDS011;66064;50.226;14.344;2023-11-18T07:19:08;7.50;;;6.80;;
77111;SDS011;66064;50.226;14.344;2023-11-18T07:21:40;9.18;;;8.60;;
77111;SDS011;66064;50.226;14.344;2023-11-18T07:24:07;9.15;;;8.45;;
77111;SDS011;66064;50.226;14.344;2023-11-18T07:26:34;8.85;;;8.35;;
77111;SDS011;66064;50.226;14.344;2023-11-18T07:28:59;10.20;;;9.60;;
77111;SDS011;66064;50.226;14.344;2023-11-18T07:31:27;9.20;;;8.50;;
77111;SDS011;66064;50.226;14.344;2023-11-18T07:33:54;8.15;;;7.63;;
77111;SDS011;66064;50.226;14.344;2023-11-18T07:36:22;10.00;;;9.20;;
77111;SDS011;66064;50.226;14.344;2023-11-18T07:38:48;9.10;;;8.48;;
77111;SDS011;66064;50.226;14.344;2023-11-18T07:41:16;9.73;;;8.73;;
77111;SDS011;66064;50.226;14.344;2023-11-18T07:43:55;11.35;;;10.43;;
77111;SDS011;66064;50.226;14.344;2023-11-18T07:46:22;9.85;;;9.23;;
77111;SDS011;66064;50.226;14.344;2023-11-18T07:48:48;10.27;;;9.77;;
77111;SDS011;66064;50.226;14.344;2023-11-18T07:51:15;10.05;;;9.43;;
77111;SDS011;66064;50.226;14.344;2023-11-18T07:53:41;9.27;;;8.68;;
77111;SDS011;66064;50.226;14.344;2023-11-18T07:56:08;9.48;;;8.70;;
77111;SDS011;66064;50.226;14.344;2023-11-18T07:58:38;9.40;;;8.60;;
77111;SDS011;66064;50.226;14.344;2023-11-18T08:01:04;10.80;;;9.95;;
77111;SDS011;66064;50.226;14.344;2023-11-18T08:03:33;9.13;;;8.43;;
77111;SDS011;66064;50.226;14.344;2023-11-18T08:06:00;8.25;;;7.65;;
77111;SDS011;66064;50.226;14.344;2023-11-18T08:08:28;10.07;;;9.48;;
77111;SDS011;66064;50.226;14.344;2023-11-18T08:10:54;9.52;;;8.93;;
77111;SDS011;66064;50.226;14.344;2023-11-18T08:13:21;11.95;;;11.25;;
77111;SDS011;66064;50.226;14.344;2023-11-18T08:15:47;11.15;;;10.45;;
77111;SDS011;66064;50.226;14.344;2023-11-18T08:18:13;8.13;;;7.50;;
77111;SDS011;66064;50.226;14.344;2023-11-18T08:20:40;7.88;;;7.28;;
77111;SDS011;66064;50.226;14.344;2023-11-18T08:23:07;7.90;;;7.30;;
77111;SDS011;66064;50.226;14.344;2023-11-18T08:25:34;8.98;;;8.45;;
77111;SDS011;66064;50.226;14.344;2023-11-18T08:28:02;9.60;;;9.00;;
77111;SDS011;66064;50.226;14.344;2023-11-18T08:30:33;8.32;;;7.72;;
77111;SDS011;66064;50.226;14.344;2023-11-18T08:33:00;9.27;;;8.68;;
77111;SDS011;66064;50.226;14.344;2023-11-18T08:35:26;9.23;;;8.52;;
77111;SDS011;66064;50.226;14.344;2023-11-18T08:37:53;8.73;;;8.10;;
77111;SDS011;66064;50.226;14.344;2023-11-18T08:40:19;8.27;;;7.65;;
77111;SDS011;66064;50.226;14.344;2023-11-18T08:42:48;11.57;;;9.40;;
77111;SDS011;66064;50.226;14.344;2023-11-18T08:45:23;13.70;;;10.05;;
77111;SDS011;66064;50.226;14.344;2023-11-18T08:47:55;20.55;;;12.98;;
77111;SDS011;66064;50.226;14.344;2023-11-18T08:50:22;15.15;;;11.43;;
77111;SDS011;66064;50.226;14.344;2023-11-18T08:52:55;9.70;;;8.65;;
77111;SDS011;66064;50.226;14.344;2023-11-18T08:55:27;8.88;;;8.02;;
77111;SDS011;66064;50.226;14.344;2023-11-18T08:58:05;8.60;;;7.90;;
77111;SDS011;66064;50.226;14.344;2023-11-18T09:00:41;8.60;;;8.00;;
77111;SDS011;66064;50.226;14.344;2023-11-18T09:03:29;7.40;;;6.80;;
77111;SDS011;66064;50.226;14.344;2023-11-18T09:08:30;8.02;;;7.22;;
77111;SDS011;66064;50.226;14.344;2023-11-18T09:11:01;8.65;;;7.93;;
77111;SDS011;66064;50.226;14.344;2023-11-18T09:13:31;8.02;;;7.22;;
77111;SDS011;66064;50.226;14.344;2023-11-18T09:16:01;10.73;;;10.02;;
77111;SDS011;66064;50.226;14.344;2023-11-18T09:18:28;8.98;;;8.27;;
77111;SDS011;66064;50.226;14.344;2023-11-18T09:20:56;8.70;;;7.93;;
77111;SDS011;66064;50.226;14.344;2023-11-18T09:23:25;10.18;;;9.23;;
77111;SDS011;66064;50.226;14.344;2023-11-18T09:25:53;9.68;;;8.95;;
77111;SDS011;66064;50.226;14.344;2023-11-18T09:28:20;10.13;;;9.27;;
77111;SDS011;66064;50.226;14.344;2023-11-18T09:30:50;8.23;;;7.53;;
77111;SDS011;66064;50.226;14.344;2023-11-18T09:33:20;7.72;;;7.03;;
77111;SDS011;66064;50.226;14.344;2023-11-18T09:36:06;8.73;;;8.07;;
77111;SDS011;66064;50.226;14.344;2023-11-18T09:38:34;8.30;;;7.70;;
77111;SDS011;66064;50.226;14.344;2023-11-18T09:41:03;8.18;;;7.38;;
77111;SDS011;66064;50.226;14.344;2023-11-18T09:43:37;6.07;;;5.47;;
77111;SDS011;66064;50.226;14.344;2023-11-18T09:46:17;12.27;;;8.93;;
77111;SDS011;66064;50.226;14.344;2023-11-18T09:53:54;7.35;;;6.65;;
77111;SDS011;66064;50.226;14.344;2023-11-18T10:01:49;6.47;;;5.97;;
77111;SDS011;66064;50.226;14.344;2023-11-18T10:04:24;7.43;;;6.72;;
77111;SDS011;66064;50.226;14.344;2023-11-18T10:06:56;8.68;;;7.97;;
77111;SDS011;66064;50.226;14.344;2023-11-18T10:12:03;6.80;;;6.20;;
77111;SDS011;66064;50.226;14.344;2023-11-18T10:14:35;7.50;;;6.32;;
77111;SDS011;66064;50.226;14.344;2023-11-18T10:17:06;7.18;;;6.47;;
77111;SDS011;66064;50.226;14.344;2023-11-18T10:22:23;6.85;;;6.15;;
77111;SDS011;66064;50.226;14.344;2023-11-18T10:24:51;8.07;;;7.28;;
77111;SDS011;66064;50.226;14.344;2023-11-18T10:27:27;6.97;;;6.38;;
77111;SDS011;66064;50.226;14.344;2023-11-18T10:29:57;5.38;;;4.88;;
77111;SDS011;66064;50.226;14.344;2023-11-18T10:32:28;6.03;;;5.43;;
77111;SDS011;66064;50.226;14.344;2023-11-18T10:34:57;5.75;;;5.30;;
77111;SDS011;66064;50.226;14.344;2023-11-18T10:37:25;5.90;;;4.70;;
77111;SDS011;66064;50.226;14.344;2023-11-18T10:39:51;5.60;;;5.10;;
77111;SDS011;66064;50.226;14.344;2023-11-18T10:42:19;6.20;;;4.57;;
77111;SDS011;66064;50.226;14.344;2023-11-18T10:44:55;5.38;;;3.78;;
77111;SDS011;66064;50.226;14.344;2023-11-18T10:47:27;5.07;;;4.28;;
77111;SDS011;66064;50.226;14.344;2023-11-18T10:49:56;4.78;;;4.28;;
77111;SDS011;66064;50.226;14.344;2023-11-18T10:52:24;5.85;;;5.28;;
77111;SDS011;66064;50.226;14.344;2023-11-18T10:55:00;4.65;;;4.15;;
77111;SDS011;66064;50.226;14.344;2023-11-18T10:57:33;5.18;;;4.32;;
77111;SDS011;66064;50.226;14.344;2023-11-18T11:00:03;5.28;;;4.57;;
77111;SDS011;66064;50.226;14.344;2023-11-18T11:02:45;7.43;;;4.82;;
77111;SDS011;66064;50.226;14.344;2023-11-18T11:05:36;5.68;;;5.07;;
77111;SDS011;66064;50.226;14.344;2023-11-18T11:08:05;6.45;;;5.97;;
77111;SDS011;66064;50.226;14.344;2023-11-18T11:10:33;5.93;;;5.32;;
77111;SDS011;66064;50.226;14.344;2023-11-18T11:13:01;6.82;;;6.10;;
77111;SDS011;66064;50.226;14.344;2023-11-18T11:15:30;6.38;;;5.82;;
77111;SDS011;66064;50.226;14.344;2023-11-18T11:18:02;7.38;;;6.75;;
77111;SDS011;66064;50.226;14.344;2023-11-18T11:20:39;7.85;;;7.05;;
77111;SDS011;66064;50.226;14.344;2023-11-18T11:26:23;7.13;;;6.57;;
77111;SDS011;66064;50.226;14.344;2023-11-18T11:29:25;9.15;;;8.55;;
77111;SDS011;66064;50.226;14.344;2023-11-18T11:32:18;5.90;;;5.40;;
77111;SDS011;66064;50.226;14.344;2023-11-18T11:34:51;6.95;;;6.43;;
77111;SDS011;66064;50.226;14.344;2023-11-18T11:37:25;8.60;;;8.00;;
77111;SDS011;66064;50.226;14.344;2023-11-18T11:39:56;8.27;;;7.68;;
77111;SDS011;66064;50.226;14.344;2023-11-18T11:42:24;8.65;;;7.88;;
77111;SDS011;66064;50.226;14.344;2023-11-18T11:44:52;8.27;;;7.68;;
77111;SDS011;66064;50.226;14.344;2023-11-18T11:47:21;7.38;;;6.78;;
77111;SDS011;66064;50.226;14.344;2023-11-18T11:49:58;10.10;;;9.32;;
77111;SDS011;66064;50.226;14.344;2023-11-18T11:52:35;7.78;;;7.18;;
77111;SDS011;66064;50.226;14.344;2023-11-18T11:58:04;8.10;;;7.45;;
77111;SDS011;66064;50.226;14.344;2023-11-18T12:00:50;8.40;;;7.63;;
77111;SDS011;66064;50.226;14.344;2023-11-18T12:03:18;8.98;;;8.27;;
77111;SDS011;66064;50.226;14.344;2023-11-18T12:05:54;9.25;;;8.38;;
77111;SDS011;66064;50.226;14.344;2023-11-18T12:08:24;8.73;;;7.97;;
77111;SDS011;66064;50.226;14.344;2023-11-18T12:10:51;8.98;;;8.18;;
77111;SDS011;66064;50.226;14.344;2023-11-18T12:13:19;10.15;;;9.30;;
77111;SDS011;66064;50.226;14.344;2023-11-18T12:15:48;9.48;;;8.57;;
77111;SDS011;66064;50.226;14.344;2023-11-18T12:18:20;10.00;;;8.88;;
77111;SDS011;66064;50.226;14.344;2023-11-18T12:20:48;9.68;;;8.70;;
77111;SDS011;66064;50.226;14.344;2023-11-18T12:23:20;9.68;;;8.85;;
77111;SDS011;66064;50.226;14.344;2023-11-18T12:25:51;10.75;;;9.85;;
77111;SDS011;66064;50.226;14.344;2023-11-18T12:31:05;11.00;;;10.02;;
77111;SDS011;66064;50.226;14.344;2023-11-18T12:41:40;10.32;;;9.32;;
77111;SDS011;66064;50.226;14.344;2023-11-18T12:47:01;8.68;;;7.82;;
77111;SDS011;66064;50.226;14.344;2023-11-18T12:49:47;9.38;;;8.00;;
77111;SDS011;66064;50.226;14.344;2023-11-18T12:52:32;7.75;;;7.05;;
77111;SDS011;66064;50.226;14.344;2023-11-18T12:54:58;8.60;;;7.95;;
77111;SDS011;66064;50.226;14.344;2023-11-18T12:57:27;10.00;;;9.10;;
77111;SDS011;66064;50.226;14.344;2023-11-18T13:03:19;9.55;;;8.75;;
77111;SDS011;66064;50.226;14.344;2023-11-18T13:05:46;10.15;;;9.27;;
77111;SDS011;66064;50.226;14.344;2023-11-18T13:08:13;9.88;;;8.98;;
77111;SDS011;66064;50.226;14.344;2023-11-18T13:10:41;9.20;;;8.40;;
77111;SDS011;66064;50.226;14.344;2023-11-18T13:13:07;10.10;;;9.15;;
77111;SDS011;66064;50.226;14.344;2023-11-18T13:15:35;9.07;;;8.27;;
77111;SDS011;66064;50.226;14.344;2023-11-18T13:18:02;8.20;;;7.50;;
77111;SDS011;66064;50.226;14.344;2023-11-18T13:20:34;8.23;;;7.43;;
77111;SDS011;66064;50.226;14.344;2023-11-18T13:23:02;9.43;;;7.68;;
77111;SDS011;66064;50.226;14.344;2023-11-18T13:25:37;7.28;;;6.57;;
77111;SDS011;66064;50.226;14.344;2023-11-18T13:28:07;8.93;;;7.38;;
77111;SDS011;66064;50.226;14.344;2023-11-18T13:30:36;8.70;;;7.90;;
77111;SDS011;66064;50.226;14.344;2023-11-18T13:33:04;7.53;;;6.90;;
77111;SDS011;66064;50.226;14.344;2023-11-18T13:35:30;20.08;;;8.60;;
77111;SDS011;66064;50.226;14.344;2023-11-18T13:37:56;8.32;;;7.63;;
77111;SDS011;66064;50.226;14.344;2023-11-18T13:40:24;8.30;;;7.50;;
77111;SDS011;66064;50.226;14.344;2023-11-18T13:43:00;9.23;;;8.27;;
77111;SDS011;66064;50.226;14.344;2023-11-18T13:45:28;10.98;;;9.93;;
77111;SDS011;66064;50.226;14.344;2023-11-18T13:47:57;10.43;;;9.43;;
77111;SDS011;66064;50.226;14.344;2023-11-18T13:50:24;12.38;;;11.18;;
77111;SDS011;66064;50.226;14.344;2023-11-18T13:52:51;9.77;;;9.00;;
77111;SDS011;66064;50.226;14.344;2023-11-18T13:55:19;11.27;;;9.90;;
77111;SDS011;66064;50.226;14.344;2023-11-18T13:57:53;9.35;;;8.40;;
77111;SDS011;66064;50.226;14.344;2023-11-18T14:00:26;9.95;;;9.05;;
77111;SDS011;66064;50.226;14.344;2023-11-18T14:02:56;8.65;;;7.95;;
77111;SDS011;66064;50.226;14.344;2023-11-18T14:05:25;8.38;;;7.57;;
77111;SDS011;66064;50.226;14.344;2023-11-18T14:07:54;11.13;;;10.07;;
77111;SDS011;66064;50.226;14.344;2023-11-18T14:10:33;13.50;;;12.40;;
77111;SDS011;66064;50.226;14.344;2023-11-18T14:12:59;13.73;;;12.10;;
77111;SDS011;66064;50.226;14.344;2023-11-18T14:15:32;12.98;;;11.82;;
77111;SDS011;66064;50.226;14.344;2023-11-18T14:18:01;15.00;;;12.32;;
77111;SDS011;66064;50.226;14.344;2023-11-18T14:20:28;25.55;;;18.13;;
77111;SDS011;66064;50.226;14.344;2023-11-18T14:22:57;12.73;;;11.43;;
77111;SDS011;66064;50.226;14.344;2023-11-18T14:25:24;18.63;;;16.75;;
77111;SDS011;66064;50.226;14.344;2023-11-18T14:27:50;13.43;;;12.20;;
77111;SDS011;66064;50.226;14.344;2023-11-18T14:30:16;17.17;;;15.32;;
77111;SDS011;66064;50.226;14.344;2023-11-18T14:32:43;9.27;;;8.45;;
77111;SDS011;66064;50.226;14.344;2023-11-18T14:35:08;13.30;;;12.15;;
77111;SDS011;66064;50.226;14.344;2023-11-18T14:37:40;14.75;;;12.68;;
77111;SDS011;66064;50.226;14.344;2023-11-18T14:40:11;19.27;;;16.00;;
77111;SDS011;66064;50.226;14.344;2023-11-18T14:42:42;30.42;;;21.65;;
77111;SDS011;66064;50.226;14.344;2023-11-18T14:45:09;12.98;;;11.88;;
77111;SDS011;66064;50.226;14.344;2023-11-18T14:47:38;20.75;;;17.92;;
77111;SDS011;66064;50.226;14.344;2023-11-18T14:50:05;13.45;;;12.05;;
77111;SDS011;66064;50.226;14.344;2023-11-18T14:52:41;11.57;;;10.48;;
77111;SDS011;66064;50.226;14.344;2023-11-18T14:55:07;14.48;;;10.40;;
77111;SDS011;66064;50.226;14.344;2023-11-18T14:57:41;16.90;;;15.27;;
77111;SDS011;66064;50.226;14.344;2023-11-18T15:00:09;11.20;;;10.25;;
77111;SDS011;66064;50.226;14.344;2023-11-18T15:02:49;13.05;;;11.95;;
77111;SDS011;66064;50.226;14.344;2023-11-18T15:05:17;12.95;;;11.75;;
77111;SDS011;66064;50.226;14.344;2023-11-18T15:07:47;17.73;;;15.90;;
77111;SDS011;66064;50.226;14.344;2023-11-18T15:10:16;51.10;;;40.50;;
77111;SDS011;66064;50.226;14.344;2023-11-18T15:12:51;47.40;;;39.50;;
77111;SDS011;66064;50.226;14.344;2023-11-18T15:15:19;47.00;;;35.05;;
77111;SDS011;66064;50.226;14.344;2023-11-18T15:17:57;44.80;;;31.10;;